Time;durP1;ratioP1;P1;durP2;ratioP2;P2;SDS_P1;SDS_P2;PMS_P1;PMS_P2;Temp;Humidity;BMP_temperature;BMP_pressure;BME280_temperature;BME280_humidity;BME280_pressure;Samples;Min_cycle;Max_cycle;Signal;HPM_P1;HPM_P2
2021/01/04 00:01:47;;;;;;;17.70;13.40;;;6.30;99.90;;;6.30;76.05;101648.97;5071751;28;20422;-71
2021/01/04 00:04:54;;;;;;;16.27;13.73;;;6.30;99.90;;;6.30;76.30;101641.09;5071506;28;20098;-71
2021/01/04 00:08:13;;;;;;;19.60;14.13;;;6.30;99.90;;;6.32;76.23;101645.53;5071558;28;20044;-72
2021/01/04 00:11:07;;;;;;;15.27;12.50;;;6.30;99.90;;;6.27;76.29;101614.75;5075896;28;20079;-72
2021/01/04 00:13:43;;;;;;;18.27;13.40;;;6.40;99.90;;;6.43;76.28;101629.16;5075534;28;20193;-71
2021/01/04 00:16:20;;;;;;;16.53;13.00;;;6.40;99.90;;;6.38;76.57;101637.81;5074333;28;20052;-72
2021/01/04 00:18:56;;;;;;;19.00;13.93;;;6.40;99.90;;;6.44;76.24;101637.06;5075303;28;20107;-72
2021/01/04 00:21:34;;;;;;;16.97;14.37;;;6.40;99.90;;;6.47;76.29;101617.84;5074014;28;20056;-72
2021/01/04 00:24:07;;;;;;;16.77;13.67;;;6.50;99.90;;;6.57;76.35;101631.25;5075288;28;20060;-71
2021/01/04 00:26:41;;;;;;;20.33;13.03;;;6.50;99.90;;;6.54;76.31;101640.81;5075276;28;20040;-72
2021/01/04 00:29:09;;;;;;;16.40;12.30;;;6.50;99.90;;;6.65;76.16;101631.44;5074908;28;20084;-71
2021/01/04 00:31:43;;;;;;;17.90;12.57;;;6.60;99.90;;;6.66;76.20;101633.22;5074878;28;20068;-71
2021/01/04 00:34:18;;;;;;;16.10;12.60;;;6.60;99.90;;;6.46;75.86;101608.19;5075028;28;20478;-72
2021/01/04 00:37:33;;;;;;;17.10;12.80;;;6.60;99.90;;;6.68;76.19;101628.88;5074867;28;20521;-72
2021/01/04 00:40:09;;;;;;;17.17;12.40;;;6.60;99.90;;;6.51;76.02;101598.66;5067964;28;20076;-72
2021/01/04 00:42:42;;;;;;;16.57;12.00;;;6.60;99.90;;;6.62;76.09;101621.72;5074647;28;20099;-72
2021/01/04 00:45:18;;;;;;;17.80;12.53;;;6.60;99.90;;;6.15;76.24;101557.56;5074963;28;20048;-72
2021/01/04 00:48:04;;;;;;;15.37;11.77;;;6.50;99.90;;;6.54;76.57;101614.53;5074710;28;20052;-71
2021/01/04 00:50:49;;;;;;;15.67;12.40;;;6.50;99.90;;;6.60;76.33;101604.16;5074811;28;20052;-71
2021/01/04 00:53:23;;;;;;;16.57;11.63;;;6.50;99.90;;;6.61;76.25;101608.56;5074779;28;20464;-72
2021/01/04 00:56:33;;;;;;;16.63;12.60;;;6.60;99.90;;;6.56;76.48;101597.94;5074443;28;20047;-72
2021/01/04 00:59:13;;;;;;;17.47;12.60;;;6.60;99.90;;;6.48;76.50;101596.88;5035144;28;20041;-72
2021/01/04 01:02:12;;;;;;;17.60;12.20;;;6.50;99.90;;;6.41;76.81;101605.44;5072016;28;20110;-72
2021/01/04 01:04:52;;;;;;;15.87;12.60;;;6.40;99.90;;;6.49;76.61;101598.63;5074380;28;20072;-71
2021/01/04 01:07:43;;;;;;;15.13;12.63;;;6.50;99.90;;;6.55;76.63;101597.88;5074289;28;20466;-72
2021/01/04 01:10:11;;;;;;;13.67;11.70;;;6.50;99.90;;;6.45;76.88;101583.66;5074247;28;20045;-71
2021/01/04 01:12:47;;;;;;;14.27;11.80;;;6.50;99.90;;;6.48;76.90;101603.88;5074052;28;20044;-71
2021/01/04 01:15:22;;;;;;;16.07;12.00;;;6.50;99.90;;;6.31;76.89;101566.66;5074352;28;20097;-72
2021/01/04 01:18:25;;;;;;;13.20;11.67;;;6.40;99.90;;;6.03;76.42;101498.59;5074418;28;20075;-72
2021/01/04 01:20:55;;;;;;;14.33;12.23;;;6.50;99.90;;;6.54;76.70;101598.75;5074218;28;20090;-72
2021/01/04 01:23:24;;;;;;;;;;;6.50;99.90;;;6.49;76.78;101597.75;5074733;28;20047;-71
2021/01/04 01:26:05;;;;;;;15.80;12.00;;;6.50;99.90;;;6.38;76.04;101573.84;5073899;28;19920;-72
2021/01/04 01:29:08;;;;;;;16.70;11.70;;;6.50;99.90;;;6.63;76.27;101598.97;5074488;28;20052;-71
2021/01/04 01:32:23;;;;;;;16.17;11.43;;;6.60;99.90;;;6.57;76.70;101590.94;5074025;28;20040;-72
2021/01/04 01:35:14;;;;;;;14.97;12.17;;;6.50;99.90;;;6.59;76.66;101598.00;5074032;28;20472;-71
2021/01/04 01:38:21;;;;;;;16.98;11.88;;;6.50;99.90;;;6.51;76.76;101577.66;5073987;28;20072;-71
2021/01/04 01:41:26;;;;;;;15.83;12.30;;;6.60;99.90;;;6.61;76.92;101590.16;5073663;28;20036;-72
2021/01/04 01:44:06;;;;;;;13.50;11.63;;;6.60;99.90;;;6.50;76.93;101586.41;5073536;28;20501;-72
2021/01/04 01:46:41;;;;;;;16.15;11.70;;;6.60;99.90;;;6.62;77.34;101594.56;5073620;28;20087;-72
2021/01/04 01:49:24;;;;;;;13.87;11.33;;;6.60;99.90;;;6.59;77.75;101599.75;5073483;28;20045;-72
2021/01/04 01:52:08;;;;;;;16.03;11.63;;;6.50;99.90;;;6.58;78.05;101604.09;5073377;28;20452;-71
2021/01/04 01:55:23;;;;;;;14.03;11.27;;;6.50;99.90;;;6.57;78.22;101606.69;5073929;28;20044;-72
2021/01/04 01:58:41;;;;;;;13.90;11.90;;;6.60;99.90;;;6.61;78.31;101604.19;5073115;28;20101;-71
2021/01/04 02:01:18;;;;;;;13.20;11.50;;;6.60;99.90;;;6.47;78.53;101596.81;5073075;28;20072;-72
2021/01/04 02:03:53;;;;;;;13.17;11.77;;;6.50;99.90;;;6.40;78.65;101603.69;5073169;28;20094;-72
2021/01/04 02:06:57;;;;;;;13.53;11.10;;;6.40;99.90;;;6.39;78.86;101599.25;5073418;28;20059;-71
2021/01/04 02:09:30;;;;;;;12.47;10.90;;;6.40;99.90;;;6.34;79.35;101579.88;5073054;28;20036;-72
2021/01/04 02:12:10;;;;;;;14.20;11.50;;;6.40;99.90;;;6.35;79.50;101595.69;5073019;28;20154;-71
2021/01/04 02:14:53;;;;;;;13.43;11.93;;;6.30;99.90;;;6.20;79.46;101590.06;5072903;28;20049;-71
2021/01/04 02:18:07;;;;;;;13.03;10.77;;;6.30;99.90;;;6.20;79.76;101590.06;5073082;28;20040;-72
2021/01/04 02:21:36;;;;;;;13.37;11.43;;;6.20;99.90;;;6.11;79.95;101599.44;5073044;28;20063;-72
2021/01/04 02:24:10;;;;;;;15.23;11.77;;;6.10;99.90;;;6.16;79.86;101606.59;5046397;28;20068;-71
2021/01/04 02:26:41;;;;;;;15.90;11.60;;;6.10;99.90;;;6.09;80.22;101598.53;5072757;28;20090;-71
2021/01/04 02:29:14;;;;;;;12.53;11.17;;;6.10;99.90;;;6.02;80.24;101594.84;5071679;28;20505;-71
2021/01/04 02:31:45;;;;;;;13.03;11.50;;;6.00;99.90;;;5.80;80.42;101583.72;5071948;28;20102;-72
2021/01/04 02:34:17;;;;;;;14.27;11.93;;;5.90;99.90;;;5.93;80.99;101598.97;5072617;28;20048;-72
2021/01/04 02:36:47;;;;;;;11.90;10.67;;;5.90;99.90;;;5.88;80.76;101588.38;5071575;28;20143;-71
2021/01/04 02:39:21;;;;;;;13.43;11.30;;;5.90;99.90;;;5.88;81.06;101590.09;5072511;28;20562;-72
2021/01/04 02:42:05;;;;;;;14.33;11.50;;;5.90;99.90;;;5.86;81.57;101599.69;5072461;28;20422;-72
2021/01/04 02:44:34;;;;;;;13.97;11.40;;;5.80;99.90;;;5.95;81.25;101598.19;5072769;28;20074;-72
2021/01/04 02:47:27;;;;;;;12.63;10.97;;;5.90;99.90;;;5.68;81.31;101557.16;5072623;28;20118;-71
2021/01/04 02:50:09;;;;;;;12.77;11.17;;;5.90;99.90;;;5.78;81.47;101581.06;5072349;28;20106;-71
2021/01/04 02:52:56;;;;;;;12.57;10.50;;;5.80;99.90;;;5.60;81.66;101570.06;5072589;28;20115;-72
2021/01/04 02:55:33;;;;;;;12.30;11.03;;;5.70;99.90;;;5.72;81.54;101598.38;5072236;28;20086;-71
2021/01/04 02:58:14;;;;;;;11.87;9.93;;;5.70;99.90;;;5.35;82.05;101538.78;5072215;28;20559;-71
2021/01/04 03:00:48;;;;;;;12.17;10.87;;;5.60;99.90;;;5.65;82.16;101581.59;5072136;28;20139;-72
2021/01/04 03:03:18;;;;;;;12.73;10.97;;;5.60;99.90;;;5.70;82.46;101606.22;5072449;28;20059;-72
2021/01/04 03:05:45;;;;;;;12.52;11.10;;;5.70;99.90;;;5.76;82.11;101584.50;5072185;28;20041;-71
2021/01/04 03:08:13;;;;;;;12.60;11.00;;;5.70;99.90;;;5.79;82.02;101588.06;5072086;28;20079;-71
2021/01/04 03:10:42;;;;;;;12.87;11.17;;;5.80;99.90;;;5.73;82.28;101585.28;5071002;28;20045;-72
2021/01/04 03:13:20;;;;;;;13.43;11.27;;;5.80;99.90;;;5.62;82.53;101570.09;5072291;28;20489;-71
2021/01/04 03:16:08;;;;;;;12.37;11.00;;;5.70;99.90;;;5.75;82.47;101578.34;5072307;28;20067;-71
2021/01/04 03:18:46;;;;;;;12.13;10.93;;;5.70;99.90;;;5.74;82.50;101580.94;5072598;28;20037;-71
2021/01/04 03:21:15;;;;;;;13.03;11.67;;;5.80;99.90;;;5.78;82.49;101588.03;5072140;28;20037;-72
2021/01/04 03:23:47;;;;;;;12.60;11.37;;;5.80;99.90;;;5.71;82.70;101581.72;5071714;28;20036;-71
2021/01/04 03:26:21;;;;;;;12.10;10.90;;;5.80;99.90;;;5.83;82.42;101586.41;5072007;28;20040;-72
2021/01/04 03:28:48;;;;;;;13.50;11.57;;;5.80;99.90;;;5.87;82.46;101583.97;5071135;28;20056;-71
2021/01/04 03:31:16;;;;;;;12.53;11.23;;;5.80;99.90;;;5.13;82.38;101449.91;5072087;28;20044;-72
2021/01/04 03:33:44;;;;;;;12.77;11.07;;;5.80;99.90;;;5.88;82.00;101582.22;5071877;28;20040;-71
2021/01/04 03:36:12;;;;;;;12.83;11.53;;;5.80;99.90;;;5.85;82.23;101582.13;5072139;28;20040;-71
2021/01/04 03:38:40;;;;;;;12.43;11.13;;;5.80;99.90;;;5.92;82.06;101587.56;5072085;28;20056;-71
2021/01/04 03:41:08;;;;;;;12.57;11.27;;;5.80;99.90;;;5.90;82.13;101589.31;5070668;28;20048;-71
2021/01/04 03:43:36;;;;;;;12.57;11.30;;;5.80;99.90;;;5.90;82.27;101589.31;5075363;28;20040;-72
2021/01/04 03:46:04;;;;;;;12.60;10.60;;;5.80;99.90;;;5.85;82.39;101585.66;5074782;28;20097;-72
2021/01/04 03:48:32;;;;;;;12.20;10.90;;;5.80;99.90;;;5.85;82.62;101585.66;5075916;28;20051;-72
2021/01/04 03:50:59;;;;;;;12.87;11.50;;;5.80;99.90;;;5.67;82.32;101548.38;5075657;28;20044;-72
2021/01/04 03:53:27;;;;;;;12.17;10.70;;;5.80;99.90;;;5.84;82.37;101580.38;5075634;28;20051;-71
2021/01/04 03:55:54;;;;;;;15.13;11.83;;;5.80;99.90;;;5.91;82.32;101575.31;5075611;28;20556;-71
2021/01/04 03:58:22;;;;;;;12.87;11.57;;;5.80;99.90;;;5.80;82.47;101575.84;5074458;28;20056;-71
2021/01/04 04:00:50;;;;;;;13.50;11.97;;;5.80;99.90;;;5.67;82.75;101548.38;5075418;28;20255;-71
2021/01/04 04:03:17;;;;;;;12.67;11.40;;;5.80;99.90;;;5.89;82.70;101563.88;5075721;28;20086;-71
2021/01/04 04:05:45;;;;;;;14.97;11.80;;;5.80;99.90;;;5.80;82.27;101566.25;5075330;28;20048;-71
2021/01/04 04:08:12;;;;;;;12.93;11.53;;;5.90;99.90;;;5.80;82.47;101573.22;5075637;28;20044;-71
2021/01/04 04:10:39;;;;;;;14.20;11.93;;;5.80;99.90;;;5.14;82.61;101465.69;5075562;28;20044;-71
2021/01/04 04:13:07;;;;;;;15.27;12.23;;;5.80;99.90;;;5.67;82.46;101537.88;5073949;28;20051;-71
2021/01/04 04:15:34;;;;;;;14.63;12.00;;;5.80;99.90;;;5.82;82.42;101566.28;5075562;28;20047;-72
2021/01/04 04:18:03;;;;;;;13.80;12.30;;;5.80;99.90;;;5.66;82.69;101546.63;5075120;28;20048;-71
2021/01/04 04:20:31;;;;;;;14.17;12.63;;;5.80;99.90;;;5.85;82.46;101558.50;5074957;28;20544;-72
2021/01/04 04:22:58;;;;;;;14.93;12.13;;;5.80;99.90;;;5.69;82.97;101565.06;5075346;28;20057;-72
2021/01/04 04:25:26;;;;;;;15.87;12.90;;;5.70;99.90;;;5.74;83.09;101570.44;5073551;28;20216;-71
2021/01/04 04:27:55;;;;;;;16.73;12.67;;;5.70;99.90;;;5.64;82.86;101544.81;5075136;28;20052;-71
2021/01/04 04:30:25;;;;;;;16.97;12.93;;;5.80;99.90;;;5.78;82.89;101567.94;5074882;28;20040;-72
2021/01/04 04:32:56;;;;;;;14.90;12.48;;;5.80;99.90;;;5.85;82.92;101574.25;5074798;28;20056;-71
2021/01/04 04:35:25;;;;;;;14.82;12.77;;;5.80;99.90;;;5.67;82.80;101556.25;5073672;28;20068;-71
2021/01/04 04:37:53;;;;;;;13.93;12.43;;;5.80;99.90;;;5.97;82.57;101567.59;5075039;28;20438;-71
2021/01/04 04:40:25;;;;;;;14.83;13.23;;;5.90;99.90;;;5.18;82.42;101467.53;5074681;28;20029;-72
2021/01/04 04:42:55;;;;;;;14.63;12.40;;;5.80;99.90;;;5.79;82.77;101569.69;5074783;28;20049;-72
2021/01/04 04:45:23;;;;;;;16.52;13.05;;;5.80;99.90;;;5.83;82.85;101571.59;5073697;28;20072;-72
2021/01/04 04:48:35;;;;;;;14.30;12.80;;;5.80;99.90;;;5.77;82.89;101571.41;5074538;28;20056;-71
2021/01/04 04:51:20;;;;;;;14.73;12.33;;;5.70;99.90;;;5.76;82.86;101574.00;5073500;28;20523;-71
2021/01/04 04:54:27;;;;;;;14.10;12.63;;;5.80;99.90;;;5.79;82.60;101580.19;5073848;28;20048;-72
2021/01/04 04:57:38;;;;;;;14.03;11.53;;;5.80;99.90;;;5.83;83.00;101586.41;5074784;28;20048;-71
2021/01/04 05:00:41;;;;;;;14.80;12.30;;;5.80;99.90;;;5.77;82.87;101583.66;5074597;28;20057;-71
2021/01/04 05:03:25;;;;;;;14.53;11.93;;;5.80;99.90;;;5.76;83.16;101574.88;5071897;28;20391;-71
2021/01/04 05:06:23;;;;;;;14.03;11.43;;;5.80;99.90;;;5.55;82.68;101544.56;5073092;28;20048;-78
2021/01/04 05:09:14;;;;;;;13.33;11.87;;;5.80;99.90;;;5.76;82.95;101577.50;5074287;28;20053;-74
2021/01/04 05:11:47;;;;;;;15.60;11.90;;;5.80;99.90;;;5.72;82.60;101551.13;5074463;28;20091;-77
2021/01/04 05:14:21;;;;;;;14.07;11.87;;;5.80;99.90;;;5.83;82.56;101575.91;5074595;28;20114;-75
2021/01/04 05:17:16;;;;;;;13.33;11.90;;;5.80;99.90;;;5.72;82.85;101582.63;5072751;28;20106;-76
2021/01/04 05:20:09;;;;;;;12.77;11.27;;;5.70;99.90;;;5.73;82.89;101573.94;5074271;28;20126;-78
2021/01/04 05:23:15;;;;;;;14.83;12.70;;;5.70;99.90;;;5.64;82.74;101564.06;5073922;28;20048;-80
2021/01/04 05:26:28;;;;;;;15.20;11.93;;;5.80;99.90;;;5.71;82.66;101584.34;5074555;28;20134;-78
2021/01/04 05:29:55;;;;;;;14.37;12.23;;;5.80;99.90;;;5.58;82.77;101566.53;5073878;28;20106;-78
2021/01/04 05:32:47;;;;;;;13.53;11.03;;;5.70;99.90;;;5.62;82.84;101573.63;5063916;28;20084;-77
2021/01/04 05:35:17;;;;;;;13.63;11.80;;;5.70;99.90;;;5.50;82.91;101589.94;5073956;28;20044;-77
2021/01/04 05:37:55;;;;;;;14.68;12.52;;;5.50;99.90;;;5.66;82.89;101591.22;5073891;28;20071;-78
2021/01/04 05:41:11;;;;;;;13.90;12.37;;;5.60;99.90;;;5.48;83.06;101546.13;5073538;28;20041;-77
2021/01/04 05:43:50;;;;;;;16.33;12.13;;;5.70;99.90;;;5.69;82.82;101590.44;5072507;28;20059;-78
2021/01/04 05:46:25;;;;;;;14.37;12.33;;;5.60;99.90;;;5.67;82.75;101577.25;5073777;28;20547;-78
2021/01/04 05:49:07;;;;;;;15.27;12.00;;;5.70;99.90;;;5.49;82.43;101559.31;5072473;28;20092;-79
2021/01/04 05:51:39;;;;;;;13.83;11.73;;;5.70;99.90;;;5.72;82.88;101603.63;5072420;28;20489;-78
2021/01/04 05:54:06;;;;;;;17.40;12.73;;;5.70;99.90;;;5.65;82.87;101599.06;5074064;28;20095;-78
2021/01/04 05:56:35;;;;;;;14.50;12.10;;;5.70;99.90;;;5.53;83.33;101599.63;5073630;28;20102;-78
2021/01/04 05:59:09;;;;;;;14.77;11.67;;;5.50;99.90;;;5.61;83.61;101602.47;5073607;28;20101;-78
2021/01/04 06:01:40;;;;;;;16.43;12.50;;;5.60;99.90;;;5.61;83.59;101603.34;5073452;28;20135;-78
2021/01/04 06:04:13;;;;;;;17.20;12.98;;;5.60;99.90;;;5.36;83.70;101585.16;5073445;28;20052;-78
2021/01/04 06:07:00;;;;;;;15.60;12.43;;;5.40;99.90;;;5.34;83.97;101585.09;5072449;28;20059;-79
2021/01/04 06:09:28;;;;;;;14.10;12.30;;;5.50;99.90;;;5.23;83.77;101559.41;5073328;28;20044;-79
2021/01/04 06:12:00;;;;;;;15.47;11.80;;;5.50;99.90;;;5.24;84.07;101574.31;5073200;28;20052;-79
2021/01/04 06:14:33;;;;;;;18.43;12.70;;;5.50;99.90;;;5.33;83.81;101587.69;5073596;28;20063;-79
2021/01/04 06:17:05;;;;;;;15.70;11.83;;;5.50;99.90;;;5.47;84.05;101587.25;5072940;28;20049;-76
2021/01/04 06:19:36;;;;;;;18.00;14.03;;;5.50;99.90;;;5.30;83.98;101577.13;5072858;28;20103;-78
2021/01/04 06:22:10;;;;;;;18.07;13.93;;;5.50;99.90;;;5.50;83.85;101631.00;5073103;28;20040;-79
2021/01/04 06:24:40;;;;;;;16.70;13.23;;;5.50;99.90;;;5.50;83.88;101617.88;5073114;28;20060;-79
2021/01/04 06:27:13;;;;;;;15.70;12.57;;;5.50;99.90;;;5.52;83.68;101616.19;5072997;28;20070;-79
2021/01/04 06:29:45;;;;;;;18.70;13.73;;;5.50;99.90;;;5.15;83.95;101582.81;5072976;28;20478;-79
2021/01/04 06:32:27;;;;;;;15.93;13.53;;;5.40;99.90;;;5.47;84.37;101612.56;5072831;28;20048;-79
2021/01/04 06:34:57;;;;;;;17.03;13.70;;;5.50;99.90;;;5.47;84.25;101600.34;5072560;28;20044;-79
2021/01/04 06:37:29;;;;;;;17.57;13.83;;;5.50;99.90;;;5.34;84.15;101602.59;5072592;28;20041;-79
2021/01/04 06:40:05;;;;;;;17.23;14.10;;;5.40;99.90;;;5.50;84.11;101617.88;5072518;28;20048;-79
2021/01/04 06:42:41;;;;;;;21.90;14.53;;;5.50;99.90;;;5.31;83.64;101595.50;5072321;28;20055;-78
2021/01/04 06:45:28;;;;;;;17.80;13.97;;;5.50;99.90;;;5.53;83.89;101625.88;5072528;28;20098;-78
2021/01/04 06:48:08;;;;;;;17.33;13.97;;;5.60;99.90;;;5.40;83.86;101615.88;5071397;28;20059;-79
2021/01/04 06:50:45;;;;;;;17.63;13.55;;;5.50;99.90;;;3.34;83.76;101319.81;5073246;28;20086;-79
2021/01/04 06:53:48;;;;;;;20.70;14.10;;;5.50;99.90;;;5.44;83.73;101636.97;5072284;28;20048;-79
2021/01/04 06:57:12;;;;;;;15.83;13.43;;;5.50;99.90;;;5.48;84.03;101630.06;5071260;28;20052;-79
2021/01/04 07:00:18;;;;;;;18.37;13.80;;;5.50;99.90;;;5.62;83.87;101631.34;5072681;28;20059;-79
2021/01/04 07:03:39;;;;;;;17.77;13.30;;;5.60;99.90;;;5.63;83.50;101632.25;5072170;28;20067;-79
2021/01/04 07:06:49;;;;;;;16.63;13.37;;;5.60;99.90;;;5.69;83.73;101625.41;5070834;28;20049;-79
2021/01/04 07:09:54;;;;;;;16.23;13.30;;;5.70;99.90;;;5.26;83.76;101581.41;5069041;28;20457;-79
2021/01/04 07:12:37;;;;;;;14.20;12.70;;;5.60;99.90;;;5.47;83.75;101633.56;5068088;28;20052;-79
2021/01/04 07:15:24;;;;;;;17.77;13.47;;;5.60;99.90;;;4.85;83.65;101508.53;5072389;28;20057;-79
2021/01/04 07:18:20;;;;;;;15.23;13.03;;;5.50;99.90;;;5.68;83.65;101642.03;5072286;28;20041;-78
2021/01/04 07:21:11;;;;;;;16.77;13.47;;;5.60;99.90;;;5.58;83.61;101634.75;5071276;28;20044;-79
2021/01/04 07:23:54;;;;;;;16.13;12.75;;;5.60;99.90;;;5.60;83.58;101645.28;5072043;28;20045;-78
2021/01/04 07:26:34;;;;;;;16.47;12.97;;;5.60;99.90;;;5.58;83.70;101642.63;5072449;28;20044;-78
2021/01/04 07:29:24;;;;;;;15.73;12.47;;;5.60;99.90;;;5.58;83.65;101637.38;5072341;28;20127;-76
2021/01/04 07:31:59;;;;;;;14.98;12.27;;;5.60;99.90;;;5.67;83.71;101637.59;5072290;28;20460;-78
2021/01/04 07:34:33;;;;;;;14.03;12.40;;;5.60;99.90;;;5.65;83.91;101649.81;5071996;28;20036;-78
2021/01/04 07:37:27;;;;;;;15.33;11.73;;;5.70;99.90;;;5.57;83.76;101646.09;5072246;28;20097;-79
2021/01/04 07:40:03;;;;;;;16.23;12.70;;;5.60;99.90;;;5.58;83.81;101658.34;5072024;28;20087;-78
2021/01/04 07:43:23;;;;;;;14.23;11.97;;;5.60;99.90;;;5.59;83.30;101657.53;5071823;28;20045;-79
2021/01/04 07:46:16;;;;;;;14.77;12.37;;;5.60;99.90;;;5.63;83.37;101655.88;5068608;28;20498;-79
2021/01/04 07:49:29;;;;;;;15.67;11.63;;;5.60;99.90;;;5.59;83.52;101654.00;5072323;28;20051;-79
2021/01/04 07:52:25;;;;;;;14.50;12.13;;;5.60;99.90;;;5.54;83.73;101646.00;5065246;28;20417;-79
2021/01/04 07:56:04;;;;;;;14.40;11.87;;;5.60;99.90;;;5.73;83.49;101665.78;5070515;28;20110;-78
2021/01/04 07:59:32;;;;;;;15.07;11.33;;;5.60;99.90;;;5.72;83.41;101678.00;5070649;28;20076;-79
2021/01/04 08:02:44;;;;;;;19.20;12.20;;;5.70;99.90;;;5.76;83.30;101673.72;5071517;28;20393;-79
2021/01/04 08:05:54;;;;;;;13.23;10.60;;;5.70;99.90;;;5.67;83.13;101671.72;5071906;28;20094;-79
2021/01/04 08:08:46;;;;;;;15.35;11.18;;;5.70;99.90;;;5.76;83.07;101685.13;5071799;28;20040;-79
2021/01/04 08:12:16;;;;;;;15.27;12.27;;;5.70;99.90;;;5.75;83.04;101678.09;5071537;28;20575;-79
2021/01/04 08:15:10;;;;;;;17.40;12.35;;;5.70;99.90;;;5.73;83.20;101697.28;5070450;28;20053;-79
2021/01/04 08:17:46;;;;;;;17.27;11.87;;;5.70;99.90;;;5.56;82.70;101670.53;5070469;28;20444;-79
2021/01/04 08:20:14;;;;;;;15.37;12.07;;;5.70;99.90;;;5.79;83.20;101689.59;5070339;28;20072;-79
2021/01/04 08:23:31;;;;;;;14.37;12.13;;;5.70;99.90;;;5.74;83.04;101696.41;5071418;28;20064;-79
2021/01/04 08:26:14;;;;;;;16.43;12.67;;;5.70;99.90;;;5.79;83.02;101694.84;5072136;28;20057;-79
2021/01/04 08:28:48;;;;;;;17.90;12.53;;;5.70;99.90;;;5.80;82.83;101701.84;5071122;28;20486;-79
2021/01/04 08:31:34;;;;;;;14.97;11.97;;;5.80;99.90;;;5.76;83.30;101702.59;5075594;28;20048;-79
2021/01/04 08:34:04;;;;;;;14.90;12.43;;;5.70;99.90;;;5.76;83.00;101700.88;5075341;28;20041;-79
2021/01/04 08:36:48;;;;;;;15.23;12.05;;;5.80;99.90;;;5.69;82.94;101711.16;5074929;28;20040;-79
2021/01/04 08:39:33;;;;;;;16.93;12.40;;;5.70;99.90;;;5.72;83.11;101712.13;5075170;28;20044;-79
2021/01/04 08:42:30;;;;;;;16.40;13.60;;;5.70;99.90;;;5.72;83.21;101712.13;5074276;28;20402;-79
2021/01/04 08:45:03;;;;;;;14.20;12.33;;;5.70;99.90;;;5.58;83.69;101679.34;5075262;28;20413;-79
2021/01/04 08:47:48;;;;;;;18.07;13.80;;;5.80;99.90;;;5.06;83.50;101573.78;5073684;28;20444;-79
2021/01/04 08:50:33;;;;;;;17.60;12.53;;;5.80;99.90;;;5.70;83.88;101718.16;5074839;28;20448;-79
2021/01/04 08:53:16;;;;;;;17.97;12.10;;;5.70;99.90;;;5.64;83.62;101728.47;5074543;28;20045;-79
2021/01/04 08:55:45;;;;;;;18.83;12.93;;;5.60;99.90;;;4.55;83.62;101520.72;5074950;28;20052;-79
2021/01/04 08:58:38;;;;;;;15.47;12.33;;;5.70;99.90;;;5.67;83.31;101721.59;5073335;28;20421;-78
2021/01/04 09:01:19;;;;;;;20.13;13.03;;;5.70;99.90;;;5.61;83.61;101720.53;5073609;28;20493;-78
2021/01/04 09:03:47;;;;;;;17.33;13.00;;;5.60;99.90;;;5.63;84.07;101713.59;5074679;28;20045;-78
2021/01/04 09:06:30;;;;;;;17.37;13.00;;;5.60;99.90;;;5.63;84.11;101722.38;5074442;28;20044;-79
2021/01/04 09:09:10;;;;;;;16.10;12.60;;;5.60;99.90;;;5.66;84.39;101711.94;5074307;28;20416;-77
2021/01/04 09:11:57;;;;;;;16.03;12.83;;;5.60;99.90;;;5.58;84.42;101729.19;5074363;28;20090;-78
2021/01/04 09:14:35;;;;;;;15.50;13.07;;;5.60;99.90;;;5.60;84.69;101709.16;5073903;28;20041;-78
2021/01/04 09:17:23;;;;;;;15.23;13.37;;;5.60;99.90;;;5.68;84.60;101719.84;5074324;28;20074;-77
2021/01/04 09:20:09;;;;;;;17.20;13.47;;;5.70;99.90;;;5.73;84.41;101741.91;5074333;28;20071;-78
2021/01/04 09:22:37;;;;;;;18.43;12.80;;;5.70;99.90;;;5.80;84.21;101721.13;5072977;28;20083;-78
2021/01/04 09:25:19;;;;;;;15.30;12.87;;;5.80;99.90;;;5.69;84.09;101719.03;5074120;28;20440;-78
2021/01/04 09:27:50;;;;;;;17.27;13.70;;;5.70;99.90;;;5.75;84.33;101738.44;5074300;28;20053;-78
2021/01/04 09:30:23;;;;;;;18.50;13.13;;;5.70;99.90;;;5.76;84.23;101750.75;5073826;28;20461;-77
2021/01/04 09:33:14;;;;;;;16.97;13.33;;;5.70;99.90;;;5.48;84.49;101706.16;5074267;28;20052;-77
2021/01/04 09:35:42;;;;;;;;;;;5.70;99.90;;;5.80;84.72;101718.50;5074321;28;20041;-78
2021/01/04 09:38:18;;;;;;;21.17;14.03;;;5.80;99.90;;;5.82;84.40;101742.16;5073954;28;19997;-78
2021/01/04 09:40:50;;;;;;;15.83;13.60;;;5.70;99.90;;;5.81;84.43;101715.00;5073852;28;20072;-77
2021/01/04 09:43:23;;;;;;;16.87;13.57;;;5.90;99.90;;;5.91;83.60;101761.72;5072374;28;20076;-78
2021/01/04 09:45:52;;;;;;;14.90;13.00;;;5.90;99.90;;;5.05;83.70;101622.69;5074136;28;20433;-77
2021/01/04 09:48:32;;;;;;;21.17;13.10;;;5.80;99.90;;;5.68;83.49;101723.38;5073573;28;20502;-76
2021/01/04 09:51:04;;;;;;;13.83;12.40;;;5.80;99.90;;;5.75;83.30;101751.56;5073750;28;20048;-78
2021/01/04 09:53:35;;;;;;;18.00;13.77;;;5.70;99.90;;;5.74;83.42;101749.81;5073359;28;20044;-77
2021/01/04 09:56:07;;;;;;;15.97;12.33;;;5.70;99.90;;;5.76;83.20;101744.59;5073891;28;20044;-76
2021/01/04 09:58:36;;;;;;;16.80;12.23;;;5.70;99.90;;;4.94;82.72;101612.72;5072222;28;20390;-77
2021/01/04 10:01:08;;;;;;;18.70;11.77;;;5.80;99.90;;;5.55;83.14;101713.38;5073292;28;20098;-77
2021/01/04 10:03:36;;;;;;;16.93;12.27;;;5.70;99.90;;;5.83;83.03;101757.97;5073446;28;20063;-77
2021/01/04 10:06:08;;;;;;;14.27;11.90;;;5.80;99.90;;;4.99;82.83;101621.66;5073056;28;20109;-77
2021/01/04 10:08:37;;;;;;;14.83;12.00;;;5.80;99.90;;;5.85;82.73;101753.66;5073110;28;20509;-77
2021/01/04 10:11:09;;;;;;;14.15;12.15;;;5.80;99.90;;;5.88;82.79;101755.50;5072972;28;20401;-77
2021/01/04 10:13:38;;;;;;;;;;;5.80;99.90;;;5.88;82.59;101758.13;5073680;28;20049;-77
2021/01/04 10:16:12;;;;;;;13.93;11.13;;;5.80;99.90;;;5.75;82.04;101764.69;5073215;28;19927;-77
2021/01/04 10:18:50;;;;;;;11.80;10.47;;;5.80;99.90;;;5.63;82.19;101718.84;5072898;28;20513;-77
2021/01/04 10:21:22;;;;;;;15.33;11.97;;;5.80;99.90;;;5.77;82.77;101752.50;5071953;28;20076;-77
2021/01/04 10:23:58;;;;;;;14.57;11.33;;;5.70;99.90;;;5.84;82.39;101753.63;5072578;28;20555;-78
2021/01/04 10:26:41;;;;;;;14.23;11.35;;;5.80;99.90;;;5.81;82.52;101751.75;5071637;28;20103;-77
2021/01/04 10:29:13;;;;;;;16.77;11.97;;;5.80;99.90;;;5.94;82.71;101758.28;5072600;28;20052;-77
2021/01/04 10:31:41;;;;;;;13.17;11.33;;;5.80;99.90;;;5.95;82.37;101750.44;5072920;28;20055;-78
2021/01/04 10:34:13;;;;;;;14.13;11.33;;;5.90;99.90;;;5.64;82.42;101711.00;5072529;28;20048;-77
2021/01/04 10:36:52;;;;;;;14.23;10.83;;;5.80;99.90;;;5.99;82.37;101757.56;5072612;28;20044;-77
2021/01/04 10:39:22;;;;;;;13.48;10.98;;;5.90;99.90;;;5.95;81.80;101739.94;5072548;28;20607;-77
2021/01/04 10:42:06;;;;;;;14.98;10.90;;;5.90;99.90;;;5.90;81.61;101749.44;5072400;28;20456;-78
2021/01/04 10:44:35;;;;;;;14.00;10.53;;;5.90;99.90;;;6.00;81.40;101754.09;5072841;28;20041;-78
2021/01/04 10:47:27;;;;;;;15.23;11.57;;;6.00;99.90;;;5.29;81.35;101617.28;5072413;28;20746;-78
2021/01/04 10:50:07;;;;;;;12.23;10.50;;;6.00;99.90;;;6.06;81.21;101745.47;5072346;28;20098;-78
2021/01/04 10:52:34;;;;;;;13.23;10.73;;;6.00;99.90;;;6.00;81.18;101746.22;5071720;28;20417;-77
2021/01/04 10:55:17;;;;;;;15.75;11.07;;;6.00;99.90;;;6.03;80.77;101741.06;5072259;28;20045;-78
2021/01/04 10:57:50;;;;;;;15.05;10.90;;;6.00;99.90;;;6.03;80.54;101753.28;5071508;28;20710;-78
2021/01/04 11:00:25;;;;;;;12.77;10.17;;;6.00;99.90;;;5.92;80.73;101717.97;5072380;28;20098;-77
2021/01/04 11:02:55;;;;;;;15.17;10.47;;;6.00;99.90;;;6.08;80.71;101741.16;5072017;28;20563;-77
2021/01/04 11:05:37;;;;;;;12.93;9.47;;;6.10;99.90;;;6.03;80.45;101740.16;5072348;28;20040;-78
2021/01/04 11:08:16;;;;;;;12.07;10.23;;;6.00;99.90;;;6.12;80.20;101746.56;5072419;28;20047;-78
2021/01/04 11:10:54;;;;;;;15.07;10.60;;;6.10;99.90;;;5.95;80.14;101732.06;5071018;28;20059;-78
2021/01/04 11:13:33;;;;;;;14.00;10.60;;;6.10;99.90;;;5.99;80.13;101741.81;5072267;28;20115;-77